Flight Track Log - Related Links

Times and Time Zones

All times are in EDT time to prevent confusion due to time zone crossing. See the N21714 flight status page for this flight to view local times or setup timezone preferences in your user account.


Time Position Orientation Groundspeed Altitude Reporting Facility
EDT Latitude Longitude Course Direction KTS MPH feet Rate Location/Type
Sun 12:59:56 PM 33.7833 -111.9167 North 79 91 5,900  Level Phoenix TRACON
Sun 01:00:18 PM 33.7828 -111.9194 256° West 81 93 6,000 429 Climbing Albuquerque Center
Sun 01:01:20 PM 33.7978 -111.9042 40° Northeast 73 84 6,500 387 Climbing Albuquerque Center
Sun 01:02:22 PM 33.8139 -111.8844 45° Northeast 70 81 6,800 290 Climbing Albuquerque Center
Sun 01:03:24 PM 33.8283 -111.8658 47° Northeast 75 86 7,100 387 Climbing Albuquerque Center
Sun 01:04:26 PM 33.8450 -111.8464 44° Northeast 82 94 7,600 484 Climbing Albuquerque Center
Sun 01:05:00 PM 33.6708 -111.9749 North  Level Estimated
Sun 01:05:28 PM 33.8633 -111.8250 44° Northeast 90 104 8,100  Level Albuquerque Center
Sun 01:06:30 PM 33.8769 -111.8072 47° Northeast 77 89 8,500 387 Climbing Albuquerque Center
Sun 01:07:32 PM 33.8953 -111.7856 44° Northeast 78 90 8,900 339 Climbing Albuquerque Center
Sun 01:08:34 PM 33.9100 -111.7678 45° Northeast 76 87 9,200 290 Climbing Albuquerque Center
Sun 01:09:36 PM 33.9244 -111.7497 46° Northeast 76 87 9,500 194 Climbing Albuquerque Center
Sun 01:10:38 PM 33.9414 -111.7292 45° Northeast 88 101 9,600 48 Climbing Albuquerque Center
Sun 01:11:40 PM 33.9614 -111.7067 43° Northeast 99 114 9,600  Level Albuquerque Center
Sun 01:12:42 PM 33.9878 -111.6856 34° Northeast 94 108 9,600  Level Albuquerque Center
Sun 01:13:44 PM 34.0089 -111.6656 38° Northeast 99 114 9,600  Level Albuquerque Center
Sun 01:14:46 PM 34.0317 -111.6439 38° Northeast 106 122 9,600  Level Albuquerque Center
Sun 01:15:48 PM 34.0539 -111.6233 37° Northeast 102 117 9,600  Level Albuquerque Center
Sun 01:16:50 PM 34.0831 -111.5958 38° Northeast 110 127 9,600 -48 Level Albuquerque Center
Sun 01:17:52 PM 34.1047 -111.5753 38° Northeast 103 119 9,500 -48 Descending Albuquerque Center
Sun 01:18:54 PM 34.1253 -111.5575 36° Northeast 92 106 9,500  Level Albuquerque Center
Sun 01:19:56 PM 34.1469 -111.5378 37° Northeast 95 109 9,500  Level Albuquerque Center
Sun 01:20:58 PM 34.1689 -111.5181 37° Northeast 99 114 9,500  Level Albuquerque Center
Sun 01:22:00 PM 34.1886 -111.5000 37° Northeast 92 106 9,500  Level Albuquerque Center
Sun 01:23:02 PM 34.2111 -111.4794 37° Northeast 100 115 9,500  Level Albuquerque Center
Sun 01:24:04 PM 34.2367 -111.4556 38° Northeast 97 112 9,500  Level Albuquerque Center
Sun 01:25:06 PM 34.2567 -111.4378 36° Northeast 92 106 9,500 48 Level Albuquerque Center
Sun 01:26:08 PM 34.2775 -111.4181 38° Northeast 93 107 9,600  Climbing Albuquerque Center
Sun 01:27:10 PM 34.3008 -111.3967 37° Northeast 98 113 9,500 -48 Descending Albuquerque Center
Sun 01:28:12 PM 34.3225 -111.3769 37° Northeast 100 115 9,500 48 Level Albuquerque Center
Sun 01:29:14 PM 34.3436 -111.3569 38° Northeast 98 113 9,600  Climbing Albuquerque Center
Sun 01:30:16 PM 34.3678 -111.3347 37° Northeast 95 109 9,500 -48 Descending Albuquerque Center
Sun 01:31:18 PM 34.3856 -111.3186 37° Northeast 87 100 9,500  Level Albuquerque Center
Sun 01:32:20 PM 34.4056 -111.3000 38° Northeast 88 101 9,500  Level Albuquerque Center
Sun 01:33:23 PM 34.4242 -111.2825 38° Northeast 86 99 9,500  Level Albuquerque Center
Sun 01:34:25 PM 34.4406 -111.2681 36° Northeast 77 89 9,500  Level Albuquerque Center
Sun 01:35:27 PM 34.4556 -111.2533 39° Northeast 72 83 9,500 97 Level Albuquerque Center
Sun 01:36:29 PM 34.4764 -111.2372 33° Northeast 73 84 9,700 194 Climbing Albuquerque Center
Sun 01:38:00 PM 34.5152 -111.2090 31° Northeast  Level FlightAware Approximate
Sun 01:45:00 PM 34.6944 -111.0785 31° Northeast  Level FlightAware Approximate
Sun 01:46:00 PM 34.7200 -111.0598 31° Northeast  Level FlightAware Approximate
Sun 01:47:00 PM 34.7451 -111.0401 35° Northeast  Level FlightAware Approximate
Sun 01:48:00 PM 34.7697 -111.0195 35° Northeast  Level FlightAware Approximate
Sun 01:49:00 PM 34.7943 -110.9989 35° Northeast  Level FlightAware Approximate
Sun 01:50:00 PM 34.8189 -110.9782 35° Northeast  Level FlightAware Approximate
Sun 01:51:00 PM 34.8434 -110.9576 35° Northeast  Level FlightAware Approximate
Sun 01:52:00 PM 34.8680 -110.9369 35° Northeast  Level FlightAware Approximate
Sun 01:53:00 PM 34.8926 -110.9162 35° Northeast  Level FlightAware Approximate
Sun 01:54:00 PM 34.9171 -110.8956 35° Northeast  Level FlightAware Approximate
Sun 01:55:00 PM 34.9417 -110.8748 35° Northeast  Level FlightAware Approximate
Sun 01:56:00 PM 34.9662 -110.8541 35° Northeast  Level FlightAware Approximate
Sun 01:57:00 PM 34.9908 -110.8334 35° Northeast  Level FlightAware Approximate
Sun 01:58:00 PM 35.0153 -110.8127 35° Northeast  Level FlightAware Approximate
Sun 01:59:00 PM 35.0398 -110.7919 35° Northeast  Level FlightAware Approximate
Sun 02:00:00 PM 35.0668 -110.7890 345° North  Level FlightAware Approximate
Sun 02:01:00 PM 35.0956 -110.7988 345° North  Level FlightAware Approximate
Sun 02:02:00 PM 35.1244 -110.8085 345° North  Level FlightAware Approximate
Sun 02:03:00 PM 35.1531 -110.8183 344° North  Level FlightAware Approximate
Sun 02:04:00 PM 35.1819 -110.8280 344° North  Level FlightAware Approximate
Sun 02:05:00 PM 35.2107 -110.8378 344° North  Level FlightAware Approximate
Sun 02:06:00 PM 35.2394 -110.8476 344° North  Level FlightAware Approximate
Sun 02:07:00 PM 35.2682 -110.8574 344° North  Level FlightAware Approximate
Sun 02:08:00 PM 35.2969 -110.8672 344° North  Level FlightAware Approximate
Sun 02:09:00 PM 35.3257 -110.8770 344° North  Level FlightAware Approximate
Sun 02:10:00 PM 35.3545 -110.8868 344° North  Level FlightAware Approximate
Sun 02:11:00 PM 35.3832 -110.8966 344° North  Level FlightAware Approximate
Sun 02:12:00 PM 35.4119 -110.9064 344° North  Level FlightAware Approximate
Sun 02:13:00 PM 35.4407 -110.9162 344° North  Level FlightAware Approximate
Sun 02:14:00 PM 35.4695 -110.9261 344° North  Level FlightAware Approximate
Sun 02:15:00 PM 35.4982 -110.9359 344° North  Level FlightAware Approximate
Sun 02:16:00 PM 35.5270 -110.9458 344° North  Level FlightAware Approximate
Sun 02:17:00 PM 35.5557 -110.9556 344° North  Level FlightAware Approximate
Sun 02:18:00 PM 35.5844 -110.9655 344° North  Level FlightAware Approximate
Sun 02:19:00 PM 35.6132 -110.9753 344° North  Level FlightAware Approximate
Sun 02:20:00 PM 35.6419 -110.9852 344° North  Level FlightAware Approximate
Sun 02:21:00 PM 35.6707 -110.9951 344° North  Level FlightAware Approximate
Sun 02:22:00 PM 35.6995 -111.0050 344° North  Level FlightAware Approximate
Sun 02:23:00 PM 35.7282 -111.0149 344° North  Level FlightAware Approximate
Sun 02:24:00 PM 35.7569 -111.0251 344° North  Level FlightAware Approximate
Sun 02:25:00 PM 35.7855 -111.0354 344° North  Level FlightAware Approximate
Sun 02:26:00 PM 35.8142 -111.0456 344° North  Level FlightAware Approximate
Sun 02:27:00 PM 35.8428 -111.0559 344° North  Level FlightAware Approximate
Sun 02:28:00 PM 35.8715 -111.0662 344° North  Level FlightAware Approximate
Sun 02:29:00 PM 35.9002 -111.0765 344° North  Level FlightAware Approximate
Sun 02:30:00 PM 35.9288 -111.0868 344° North  Level FlightAware Approximate
Sun 02:31:00 PM 35.9575 -111.0971 344° North  Level FlightAware Approximate
Sun 02:32:00 PM 35.9861 -111.1075 344° North  Level FlightAware Approximate
Sun 02:33:00 PM 36.0148 -111.1178 344° North  Level FlightAware Approximate
Sun 02:34:00 PM 36.0434 -111.1281 344° North  Level FlightAware Approximate
Sun 02:35:00 PM 36.0721 -111.1385 344° North  Level FlightAware Approximate
Sun 02:36:00 PM 36.1007 -111.1488 344° North  Level FlightAware Approximate
Sun 02:37:00 PM 36.1294 -111.1592 344° North  Level FlightAware Approximate
Sun 02:38:00 PM 36.1580 -111.1695 344° North  Level FlightAware Approximate
Sun 02:39:00 PM 36.1867 -111.1799 344° North  Level FlightAware Approximate
Sun 02:40:00 PM 36.2153 -111.1903 344° North  Level FlightAware Approximate
Sun 02:41:00 PM 36.2440 -111.2007 344° North  Level FlightAware Approximate
Sun 02:42:00 PM 36.2726 -111.2111 344° North  Level FlightAware Approximate
Sun 02:43:00 PM 36.3013 -111.2215 344° North  Level FlightAware Approximate
Sun 02:44:00 PM 36.3299 -111.2319 344° North  Level FlightAware Approximate
Sun 02:45:00 PM 36.3586 -111.2423 344° North  Level FlightAware Approximate
Sun 02:46:00 PM 36.3872 -111.2528 344° North  Level FlightAware Approximate
Sun 02:47:00 PM 36.4158 -111.2632 344° North  Level FlightAware Approximate
Sun 02:48:00 PM 36.4445 -111.2736 344° North  Level FlightAware Approximate
Sun 02:49:00 PM 36.4731 -111.2841 344° North  Level FlightAware Approximate
Sun 02:50:00 PM 36.5018 -111.2945 344° North  Level FlightAware Approximate
Sun 02:51:00 PM 36.5310 -111.3000 North  Level FlightAware Approximate
Sun 02:52:00 PM 36.5603 -111.3041 342° North  Level FlightAware Approximate
Sun 02:53:00 PM 36.5887 -111.3154 342° North  Level FlightAware Approximate
Sun 02:54:00 PM 36.6172 -111.3268 342° North  Level FlightAware Approximate
Sun 02:55:00 PM 36.6456 -111.3381 342° North  Level FlightAware Approximate
Sun 02:56:00 PM 36.6740 -111.3495 342° North  Level FlightAware Approximate
Sun 02:57:00 PM 36.7024 -111.3608 342° North  Level FlightAware Approximate
Sun 02:58:00 PM 36.7309 -111.3722 342° North  Level FlightAware Approximate
Sun 02:59:00 PM 36.7593 -111.3836 342° North  Level FlightAware Approximate
Sun 03:00:00 PM 36.7877 -111.3950 342° North  Level FlightAware Approximate
Sun 03:01:00 PM 36.8161 -111.4063 342° North  Level FlightAware Approximate
Sun 03:02:00 PM 36.8445 -111.4177 342° North  Level FlightAware Approximate
Sun 03:03:00 PM 36.8730 -111.4292 342° North  Level FlightAware Approximate
Sun 03:04:00 PM 36.9023 -111.4333 North  Level FlightAware Approximate
Sun 03:05:00 PM 36.9167 -111.4333 North  Level FlightAware Approximate
Sun 03:06:00 PM 36.9261 -111.4484 North  Level Estimated
Sun 03:07:00 PM 36.9261 -111.4484 North  Level Estimated
Sun 03:08:00 PM 36.9261 -111.4484 North  Level Estimated
Sun 03:09:00 PM 36.9261 -111.4484 North  Level Estimated
Sun 03:10:00 PM 36.9261 -111.4484 North  Level Estimated
Sun 03:11:00 PM 36.9261 -111.4484 North  Level Estimated
Sun 03:12:00 PM 36.9261 -111.4484 North  Level Estimated
Sun 03:13:00 PM 36.9261 -111.4484 North  Level Estimated
Sun 03:14:00 PM 36.9261 -111.4484 North  Level Estimated
Sun 03:15:00 PM 36.9261 -111.4484 North  Level Estimated
Sun 03:16:00 PM 36.9261 -111.4484 North  Level Estimated
Sun 03:17:00 PM 36.9261 -111.4484 North  Level Estimated
Sun 03:18:00 PM 36.9261 -111.4484 North  Level Estimated
Sun 03:19:00 PM 36.9261 -111.4484 North  Level Estimated
Sun 03:20:00 PM 36.9261 -111.4484 North  Level Estimated
Sun 03:21:00 PM 36.9261 -111.4484 North  Level Estimated
Sun 03:22:00 PM 36.9261 -111.4484 North  Level Estimated
Sun 03:23:00 PM 36.9261 -111.4484 North  Level Estimated
Sun 03:24:00 PM 36.9261 -111.4484 North  Level Estimated

Login

Don't have an account? Register now (free) for customized features, flight alerts, and more!